createdAt,value
2022-08-01T00:00:47.521Z,5.25
2022-08-01T00:03:14.695Z,4.72
2022-08-01T00:05:44.504Z,5.28
2022-08-01T00:08:11.544Z,5.25
2022-08-01T00:10:38.684Z,5.00
2022-08-01T00:13:05.770Z,3.80
2022-08-01T00:15:33.500Z,3.90
2022-08-01T00:18:00.641Z,5.18
2022-08-01T00:20:28.040Z,5.65
2022-08-01T00:22:55.152Z,5.03
2022-08-01T00:25:22.341Z,4.45
2022-08-01T00:28:02.194Z,6.65
2022-08-01T00:30:31.773Z,7.07
2022-08-01T00:32:58.862Z,5.13
2022-08-01T00:35:26.397Z,7.13
2022-08-01T00:37:53.746Z,6.18
2022-08-01T00:40:20.969Z,5.57
2022-08-01T00:42:48.088Z,3.53
2022-08-01T00:45:15.301Z,8.35
2022-08-01T00:47:42.401Z,5.13
2022-08-01T00:50:10.401Z,6.43
2022-08-01T00:52:38.297Z,4.90
2022-08-01T00:55:05.828Z,6.28
2022-08-01T00:57:41.451Z,4.25
2022-08-01T01:00:27.167Z,2.63
2022-08-01T01:05:21.945Z,3.80
2022-08-01T01:08:03.159Z,2.30
2022-08-01T01:10:38.027Z,7.45
2022-08-01T01:13:14.090Z,6.80
2022-08-01T01:15:47.181Z,6.22
2022-08-01T01:18:32.589Z,7.25
2022-08-01T01:21:19.402Z,3.65
2022-08-01T01:24:07.815Z,7.35
2022-08-01T01:26:38.811Z,6.38
2022-08-01T01:29:20.560Z,9.68
2022-08-01T01:31:52.717Z,7.47
2022-08-01T01:34:22.421Z,4.63
2022-08-01T01:36:53.248Z,6.97
2022-08-01T01:39:22.589Z,7.25
2022-08-01T01:41:51.508Z,6.63
2022-08-01T01:44:19.620Z,4.88
2022-08-01T01:46:48.489Z,7.85
2022-08-01T01:49:16.772Z,4.13
2022-08-01T01:52:02.137Z,7.50
2022-08-01T01:54:45.490Z,6.28
2022-08-01T01:57:14.776Z,7.40
2022-08-01T01:59:43.187Z,5.07
2022-08-01T02:02:11.799Z,4.43
2022-08-01T02:04:45.861Z,7.47
2022-08-01T02:07:18.772Z,4.55
2022-08-01T02:09:48.117Z,9.05
2022-08-01T02:12:17.654Z,5.32
2022-08-01T02:14:47.085Z,7.55
2022-08-01T02:17:18.299Z,4.28
2022-08-01T02:19:46.009Z,4.68
2022-08-01T02:22:23.513Z,4.45
2022-08-01T02:25:09.277Z,3.35
2022-08-01T02:27:44.701Z,2.92
2022-08-01T02:30:15.191Z,4.45
2022-08-01T02:32:52.467Z,4.03
2022-08-01T02:35:29.941Z,4.93
2022-08-01T02:37:59.723Z,4.93
2022-08-01T02:40:33.749Z,5.00
2022-08-01T02:43:04.636Z,3.83
2022-08-01T02:45:33.952Z,6.63
2022-08-01T02:48:10.545Z,9.02
2022-08-01T02:50:39.915Z,4.28
2022-08-01T02:53:09.128Z,6.30
2022-08-01T02:55:37.909Z,7.32
2022-08-01T02:58:06.800Z,6.70
2022-08-01T03:00:35.505Z,3.47
2022-08-01T03:03:07.920Z,7.38
2022-08-01T03:05:36.850Z,3.85
2022-08-01T03:08:05.869Z,8.65
2022-08-01T03:10:45.523Z,6.53
2022-08-01T03:13:14.643Z,4.07
2022-08-01T03:15:44.407Z,8.00
2022-08-01T03:18:13.106Z,4.45
2022-08-01T03:20:43.908Z,8.48
2022-08-01T03:23:13.014Z,6.45
2022-08-01T03:25:42.673Z,6.72
2022-08-01T03:28:13.217Z,6.65
2022-08-01T03:30:41.934Z,5.68
2022-08-01T03:33:10.267Z,6.72
2022-08-01T03:35:49.006Z,7.28
2022-08-01T03:38:21.148Z,8.75
2022-08-01T03:40:57.744Z,6.88
2022-08-01T03:43:31.100Z,5.78
2022-08-01T03:46:06.102Z,5.00
2022-08-01T03:48:56.251Z,5.40
2022-08-01T03:51:24.568Z,5.85
2022-08-01T03:53:55.650Z,5.22
2022-08-01T03:56:25.412Z,11.40
2022-08-01T03:58:52.877Z,3.58
2022-08-01T04:01:20.657Z,6.07
2022-08-01T04:03:48.250Z,4.68
2022-08-01T04:06:16.639Z,4.88
2022-08-01T04:08:43.892Z,4.75
2022-08-01T04:11:11.313Z,5.47
2022-08-01T04:13:38.684Z,7.55
2022-08-01T04:16:06.450Z,6.28
2022-08-01T04:18:33.721Z,4.93
2022-08-01T04:21:00.869Z,5.60
2022-08-01T04:23:32.614Z,4.53
2022-08-01T04:26:05.192Z,8.70
2022-08-01T04:28:35.890Z,4.93
2022-08-01T04:31:04.014Z,5.82
2022-08-01T04:33:31.953Z,5.90
2022-08-01T04:36:04.850Z,5.35
2022-08-01T04:38:37.841Z,4.40
2022-08-01T04:41:09.136Z,6.37
2022-08-01T04:43:40.604Z,4.60
2022-08-01T04:46:08.861Z,4.90
2022-08-01T04:48:38.465Z,6.63
2022-08-01T04:51:12.519Z,3.95
2022-08-01T04:53:39.743Z,4.95
2022-08-01T04:56:07.088Z,7.70
2022-08-01T04:58:34.485Z,5.68
2022-08-01T05:01:01.760Z,2.90
2022-08-01T05:03:28.846Z,5.72
2022-08-01T05:05:55.966Z,7.10
2022-08-01T05:08:23.270Z,7.22
2022-08-01T05:10:50.474Z,7.00
2022-08-01T05:13:17.704Z,6.45
2022-08-01T05:15:44.845Z,4.88
2022-08-01T05:18:12.394Z,6.95
2022-08-01T05:20:42.495Z,4.35
2022-08-01T05:23:10.705Z,5.03
2022-08-01T05:25:56.620Z,4.60
2022-08-01T05:28:25.338Z,4.70
2022-08-01T05:30:55.967Z,5.28
2022-08-01T05:33:23.824Z,7.97
2022-08-01T05:35:51.087Z,6.70
2022-08-01T05:38:18.191Z,6.65
2022-08-01T05:40:45.359Z,10.50
2022-08-01T05:43:12.565Z,3.15
2022-08-01T05:45:39.776Z,4.78
2022-08-01T05:48:07.136Z,3.88
2022-08-01T05:50:34.981Z,4.95
2022-08-01T05:53:02.284Z,4.75
2022-08-01T05:55:29.668Z,3.15
2022-08-01T05:57:56.917Z,8.38
2022-08-01T06:00:24.433Z,3.70
2022-08-01T06:02:51.668Z,5.18
2022-08-01T06:05:18.810Z,8.13
2022-08-01T06:07:45.973Z,7.22
2022-08-01T06:10:13.285Z,10.68
2022-08-01T06:12:40.524Z,5.65
2022-08-01T06:15:08.437Z,5.88
2022-08-01T06:17:35.580Z,5.90
2022-08-01T06:20:03.148Z,4.25
2022-08-01T06:22:30.288Z,9.13
2022-08-01T06:24:58.779Z,4.22
2022-08-01T06:27:28.601Z,10.63
2022-08-01T06:29:55.946Z,7.88
2022-08-01T06:32:27.950Z,4.40
2022-08-01T06:34:56.475Z,6.32
2022-08-01T06:37:24.428Z,7.68
2022-08-01T06:39:51.671Z,5.75
2022-08-01T06:42:19.002Z,3.50
2022-08-01T06:44:46.405Z,4.57
2022-08-01T06:47:13.988Z,10.20
2022-08-01T06:49:41.225Z,4.93
2022-08-01T06:52:08.786Z,9.05
2022-08-01T06:54:36.293Z,5.40
2022-08-01T06:57:06.710Z,3.13
2022-08-01T06:59:34.164Z,7.93
2022-08-01T07:02:02.545Z,5.10
2022-08-01T07:04:30.053Z,6.47
2022-08-01T07:06:58.404Z,8.27
2022-08-01T07:09:25.713Z,7.68
2022-08-01T07:11:53.875Z,2.22
2022-08-01T07:14:22.264Z,2.58
2022-08-01T07:16:49.744Z,4.10
2022-08-01T07:19:17.742Z,3.35
2022-08-01T07:21:45.317Z,4.40
2022-08-01T07:24:15.157Z,5.43
2022-08-01T07:26:52.621Z,3.15
2022-08-01T07:29:24.219Z,1.98
2022-08-01T07:31:54.245Z,3.40
2022-08-01T07:34:22.055Z,5.07
2022-08-01T07:36:49.260Z,3.50
2022-08-01T07:39:16.448Z,4.78
2022-08-01T07:41:53.028Z,1.58
2022-08-01T07:44:31.159Z,2.28
2022-08-01T07:46:58.304Z,3.10
2022-08-01T07:49:25.542Z,3.10
2022-08-01T07:52:13.269Z,1.40
2022-08-01T07:54:40.204Z,2.40
2022-08-01T07:57:08.192Z,3.00
2022-08-01T07:59:35.511Z,4.43
2022-08-01T08:02:03.090Z,4.57
2022-08-01T08:04:30.381Z,2.30
2022-08-01T08:06:57.452Z,3.08
2022-08-01T08:09:24.637Z,2.47
2022-08-01T08:11:51.769Z,5.80
2022-08-01T08:14:19.632Z,5.43
2022-08-01T08:16:47.194Z,7.50
2022-08-01T08:19:14.379Z,2.13
2022-08-01T08:21:42.002Z,1.77
2022-08-01T08:24:26.600Z,2.35
2022-08-01T08:27:00.215Z,2.08
2022-08-01T08:29:28.643Z,6.05
2022-08-01T08:31:57.197Z,3.38
2022-08-01T08:34:25.319Z,2.97
2022-08-01T08:36:52.718Z,3.63
2022-08-01T08:39:20.948Z,1.50
2022-08-01T08:41:49.856Z,2.70
2022-08-01T08:44:18.518Z,1.80
2022-08-01T08:46:52.338Z,2.13
2022-08-01T08:49:22.443Z,2.35
2022-08-01T08:52:10.908Z,3.63
2022-08-01T08:54:43.043Z,1.63
2022-08-01T08:57:11.932Z,4.32
2022-08-01T08:59:39.763Z,4.07
2022-08-01T09:02:10.705Z,2.13
2022-08-01T09:04:41.144Z,2.03
2022-08-01T09:07:09.716Z,1.20
2022-08-01T09:09:40.898Z,3.55
2022-08-01T09:12:10.211Z,1.85
2022-08-01T09:14:47.191Z,1.98
2022-08-01T09:17:14.679Z,1.65
2022-08-01T09:19:52.278Z,3.60
2022-08-01T09:22:24.141Z,4.78
2022-08-01T09:25:07.412Z,2.58
2022-08-01T09:27:36.289Z,0.95
2022-08-01T09:30:19.436Z,1.20
2022-08-01T09:33:17.905Z,1.10
2022-08-01T09:35:58.605Z,1.40
2022-08-01T09:38:29.529Z,3.05
2022-08-01T09:40:59.967Z,2.10
2022-08-01T09:43:31.954Z,1.60
2022-08-01T09:46:01.045Z,1.77
2022-08-01T09:48:30.194Z,2.28
2022-08-01T09:51:07.034Z,1.10
2022-08-01T09:53:51.335Z,1.58
2022-08-01T09:56:21.476Z,3.55
2022-08-01T09:58:59.333Z,1.98
2022-08-01T10:01:36.041Z,1.40
2022-08-01T10:04:13.396Z,2.55
2022-08-01T10:06:45.483Z,1.38
2022-08-01T10:09:15.298Z,1.60
2022-08-01T10:11:44.676Z,2.42
2022-08-01T10:14:17.686Z,1.73
2022-08-01T10:16:46.566Z,1.17
2022-08-01T10:19:24.724Z,2.70
2022-08-01T10:21:57.699Z,1.40
2022-08-01T10:24:29.642Z,1.33
2022-08-01T10:27:08.445Z,1.55
2022-08-01T10:30:05.904Z,1.75
2022-08-01T10:32:39.492Z,1.35
2022-08-01T10:35:14.780Z,4.28
2022-08-01T10:37:51.839Z,3.03
2022-08-01T10:40:37.037Z,1.63
2022-08-01T10:43:04.641Z,1.08
2022-08-01T10:45:32.417Z,2.25
2022-08-01T10:48:37.016Z,1.83
2022-08-01T10:51:17.878Z,1.92
2022-08-01T10:53:53.903Z,1.27
2022-08-01T10:56:27.022Z,1.30
2022-08-01T10:59:06.443Z,1.20
2022-08-01T11:01:43.412Z,3.90
2022-08-01T11:04:17.596Z,2.13
2022-08-01T11:06:54.379Z,1.05
2022-08-01T11:09:39.552Z,1.10
2022-08-01T11:12:08.310Z,2.85
2022-08-01T11:14:59.199Z,1.60
2022-08-01T11:17:49.185Z,1.85
2022-08-01T11:20:31.445Z,3.28
2022-08-01T11:23:02.167Z,2.17
2022-08-01T11:26:03.092Z,3.85
2022-08-01T11:28:30.341Z,2.88
2022-08-01T11:31:11.132Z,2.13
2022-08-01T11:33:49.348Z,2.17
2022-08-01T11:36:36.797Z,4.63
2022-08-01T11:39:13.521Z,1.95
2022-08-01T11:41:42.378Z,1.90
2022-08-01T11:44:17.249Z,1.85
2022-08-01T11:47:09.545Z,1.55
2022-08-01T11:49:48.928Z,1.80
2022-08-01T11:52:24.720Z,1.27
2022-08-01T11:54:54.274Z,3.22
2022-08-01T11:57:35.758Z,2.15
2022-08-01T12:00:17.581Z,1.88
2022-08-01T12:02:47.081Z,1.23
2022-08-01T12:05:19.375Z,2.05
2022-08-01T12:07:51.470Z,2.13
2022-08-01T12:10:21.496Z,1.23
2022-08-01T12:12:51.251Z,2.72
2022-08-01T12:15:19.624Z,2.22
2022-08-01T12:17:57.945Z,5.07
2022-08-01T12:20:32.439Z,1.40
2022-08-01T12:25:28.660Z,2.72
2022-08-01T12:27:56.997Z,2.28
2022-08-01T12:30:25.501Z,1.52
2022-08-01T12:32:54.478Z,3.50
2022-08-01T12:35:24.364Z,1.42
2022-08-01T12:37:57.059Z,1.30
2022-08-01T12:40:27.945Z,2.42
2022-08-01T12:42:58.119Z,1.02
2022-08-01T12:45:35.128Z,2.85
2022-08-01T12:48:02.682Z,1.65
2022-08-01T12:50:32.524Z,1.52
2022-08-01T12:53:02.000Z,1.17
2022-08-01T12:55:34.540Z,3.50
2022-08-01T12:58:16.023Z,1.23
2022-08-01T13:00:46.414Z,2.83
2022-08-01T13:03:15.512Z,2.30
2022-08-01T13:05:44.488Z,1.98
2022-08-01T13:08:17.437Z,1.67
2022-08-01T13:10:45.216Z,1.50
2022-08-01T13:13:22.219Z,3.47
2022-08-01T13:16:06.215Z,2.28
2022-08-01T13:18:34.987Z,1.30
2022-08-01T13:21:23.030Z,0.98
2022-08-01T13:24:13.334Z,1.30
2022-08-01T13:26:52.209Z,3.75
2022-08-01T13:29:22.195Z,1.02
2022-08-01T13:31:50.084Z,2.95
2022-08-01T13:34:17.695Z,1.83
2022-08-01T13:36:49.372Z,1.20
2022-08-01T13:39:35.387Z,1.85
2022-08-01T13:42:02.664Z,2.38
2022-08-01T13:44:31.077Z,1.98
2022-08-01T13:46:58.397Z,0.88
2022-08-01T13:49:25.545Z,2.58
2022-08-01T13:52:07.566Z,1.20
2022-08-01T13:54:35.189Z,1.95
2022-08-01T13:57:02.353Z,1.63
2022-08-01T13:59:29.587Z,3.63
2022-08-01T14:01:56.945Z,2.10
2022-08-01T14:04:24.294Z,1.67
2022-08-01T14:06:51.547Z,1.33
2022-08-01T14:09:23.762Z,1.50
2022-08-01T14:11:52.128Z,5.47
2022-08-01T14:14:19.886Z,1.45
2022-08-01T14:16:48.274Z,0.90
2022-08-01T14:19:17.674Z,4.32
2022-08-01T14:21:46.511Z,1.35
2022-08-01T14:24:13.803Z,4.15
2022-08-01T14:26:41.008Z,1.98
2022-08-01T14:29:08.149Z,4.68
2022-08-01T14:31:35.389Z,2.00
2022-08-01T14:34:02.835Z,1.77
2022-08-01T14:36:31.730Z,1.52
2022-08-01T14:39:01.118Z,2.15
2022-08-01T14:41:30.902Z,3.42
2022-08-01T14:43:59.689Z,2.20
2022-08-01T14:46:27.157Z,2.92
2022-08-01T14:48:54.709Z,2.15
2022-08-01T14:51:21.872Z,1.20
2022-08-01T14:53:53.039Z,1.35
2022-08-01T14:56:20.466Z,1.33
2022-08-01T14:58:47.672Z,3.13
2022-08-01T15:01:16.092Z,1.35
2022-08-01T15:03:43.666Z,1.55
2022-08-01T15:06:12.466Z,3.63
2022-08-01T15:08:39.796Z,1.17
2022-08-01T15:11:07.088Z,1.10
2022-08-01T15:13:35.574Z,0.90
2022-08-01T15:16:04.465Z,2.03
2022-08-01T15:18:31.613Z,2.38
2022-08-01T15:21:01.489Z,1.63
2022-08-01T15:23:28.835Z,1.60
2022-08-01T15:25:56.103Z,3.45
2022-08-01T15:28:23.408Z,3.00
2022-08-01T15:30:50.675Z,3.75
2022-08-01T15:33:18.389Z,2.53
2022-08-01T15:35:45.572Z,2.85
2022-08-01T15:38:12.676Z,2.50
2022-08-01T15:40:39.814Z,1.55
2022-08-01T15:43:07.034Z,2.17
2022-08-01T15:45:49.564Z,2.80
2022-08-01T15:48:20.223Z,4.55
2022-08-01T15:50:49.089Z,1.17
2022-08-01T15:53:16.367Z,2.53
2022-08-01T15:55:48.870Z,2.72
2022-08-01T15:58:20.209Z,1.77
2022-08-01T16:00:47.323Z,2.17
2022-08-01T16:03:14.524Z,2.63
2022-08-01T16:05:44.331Z,2.75
2022-08-01T16:08:13.004Z,3.53
2022-08-01T16:10:40.567Z,2.65
2022-08-01T16:13:08.356Z,2.28
2022-08-01T16:15:37.646Z,1.20
2022-08-01T16:18:10.403Z,1.25
2022-08-01T16:20:44.552Z,1.33
2022-08-01T16:23:14.393Z,2.53
2022-08-01T16:25:41.710Z,1.92
2022-08-01T16:28:10.037Z,3.33
2022-08-01T16:30:37.983Z,2.33
2022-08-01T16:33:41.584Z,1.50
2022-08-01T16:36:02.239Z,2.13
2022-08-01T16:38:30.254Z,1.55
2022-08-01T16:40:57.585Z,1.58
2022-08-01T16:43:24.771Z,1.67
2022-08-01T16:45:51.924Z,2.22
2022-08-01T16:48:20.072Z,3.10
2022-08-01T16:50:52.979Z,1.48
2022-08-01T16:53:21.482Z,1.90
2022-08-01T16:55:50.934Z,2.00
2022-08-01T16:58:27.339Z,2.63
2022-08-01T17:00:57.768Z,2.60
2022-08-01T17:03:52.610Z,1.77
2022-08-01T17:06:22.504Z,2.90
2022-08-01T17:08:50.175Z,1.63
2022-08-01T17:11:17.705Z,2.08
2022-08-01T17:13:45.486Z,1.50
2022-08-01T17:16:12.682Z,2.00
2022-08-01T17:18:39.933Z,3.80
2022-08-01T17:21:07.237Z,2.10
2022-08-01T17:23:35.228Z,1.52
2022-08-01T17:26:02.800Z,1.48
2022-08-01T17:28:30.108Z,1.42
2022-08-01T17:30:57.487Z,2.78
2022-08-01T17:33:24.789Z,1.33
2022-08-01T17:36:12.797Z,2.25
2022-08-01T17:38:40.115Z,3.25
2022-08-01T17:41:07.304Z,1.90
2022-08-01T17:43:35.270Z,1.40
2022-08-01T17:46:02.824Z,1.35
2022-08-01T17:48:30.058Z,1.33
2022-08-01T17:50:57.373Z,1.40
2022-08-01T17:53:24.682Z,1.75
2022-08-01T17:55:55.657Z,1.83
2022-08-01T17:58:36.650Z,1.40
2022-08-01T18:01:14.485Z,1.58
2022-08-01T18:03:42.039Z,5.38
2022-08-01T18:06:11.093Z,2.15
2022-08-01T18:08:40.516Z,4.70
2022-08-01T18:11:09.183Z,2.85
2022-08-01T18:13:40.549Z,3.92
2022-08-01T18:16:09.970Z,2.30
2022-08-01T18:18:38.788Z,1.98
2022-08-01T18:21:07.466Z,2.08
2022-08-01T18:23:35.708Z,2.63
2022-08-01T18:26:03.920Z,2.08
2022-08-01T18:28:36.496Z,1.55
2022-08-01T18:31:07.223Z,2.78
2022-08-01T18:33:35.902Z,2.83
2022-08-01T18:36:04.567Z,1.73
2022-08-01T18:38:32.943Z,2.25
2022-08-01T18:41:01.320Z,3.70
2022-08-01T18:43:28.665Z,2.30
2022-08-01T18:45:58.623Z,3.13
2022-08-01T18:48:25.769Z,4.78
2022-08-01T18:50:54.117Z,4.68
2022-08-01T18:53:23.970Z,3.50
2022-08-01T18:55:51.372Z,1.88
2022-08-01T18:58:18.713Z,2.70
2022-08-01T19:00:45.974Z,4.90
2022-08-01T19:03:15.481Z,5.97
2022-08-01T19:05:43.500Z,1.60
2022-08-01T19:08:11.649Z,1.88
2022-08-01T19:10:43.515Z,3.13
2022-08-01T19:13:10.894Z,2.75
2022-08-01T19:15:38.152Z,2.05
2022-08-01T19:18:05.776Z,2.22
2022-08-01T19:20:32.937Z,5.30
2022-08-01T19:23:20.027Z,5.15
2022-08-01T19:25:55.547Z,3.97
2022-08-01T19:28:27.321Z,9.38
2022-08-01T19:30:55.967Z,10.93
2022-08-01T19:33:23.112Z,11.75
2022-08-01T19:35:53.720Z,7.28
2022-08-01T19:38:20.913Z,6.75
2022-08-01T19:40:49.836Z,9.27
2022-08-01T19:43:20.189Z,6.65
2022-08-01T19:45:50.147Z,9.38
2022-08-01T19:48:18.883Z,4.85
2022-08-01T19:50:48.699Z,7.88
2022-08-01T19:53:18.123Z,4.30
2022-08-01T19:55:47.556Z,5.57
2022-08-01T19:58:31.125Z,4.57
2022-08-01T20:00:58.332Z,4.90
2022-08-01T20:03:28.415Z,2.10
2022-08-01T20:05:56.140Z,2.03
2022-08-01T20:08:24.693Z,2.65
2022-08-01T20:10:52.037Z,4.43
2022-08-01T20:13:19.752Z,2.03
2022-08-01T20:15:47.159Z,2.88
2022-08-01T20:18:14.472Z,2.45
2022-08-01T20:20:43.115Z,1.65
2022-08-01T20:23:17.921Z,2.83
2022-08-01T20:25:52.592Z,2.20
2022-08-01T20:28:27.928Z,2.50
2022-08-01T20:31:01.112Z,2.50
2022-08-01T20:33:31.430Z,3.72
2022-08-01T20:36:00.917Z,4.13
2022-08-01T20:38:29.487Z,2.30
2022-08-01T20:41:02.507Z,2.33
2022-08-01T20:43:30.085Z,2.10
2022-08-01T20:45:57.506Z,2.60
2022-08-01T20:48:29.824Z,4.80
2022-08-01T20:51:15.541Z,4.07
2022-08-01T20:53:49.202Z,3.55
2022-08-01T20:56:25.374Z,3.38
2022-08-01T20:58:56.562Z,4.00
2022-08-01T21:01:29.487Z,2.17
2022-08-01T21:04:08.786Z,5.82
2022-08-01T21:06:44.043Z,7.00
2022-08-01T21:09:17.584Z,9.98
2022-08-01T21:14:47.142Z,12.48
2022-08-01T21:17:38.893Z,6.43
2022-08-01T21:20:08.237Z,10.20
2022-08-01T21:22:52.073Z,5.53
2022-08-01T21:25:26.303Z,4.78
2022-08-01T21:27:55.593Z,4.90
2022-08-01T21:30:25.133Z,4.13
2022-08-01T21:32:52.409Z,5.70
2022-08-01T21:35:22.484Z,5.25
2022-08-01T21:37:52.720Z,6.53
2022-08-01T21:40:24.725Z,8.90
2022-08-01T21:42:54.060Z,7.43
2022-08-01T21:45:27.398Z,4.97
2022-08-01T21:47:55.985Z,8.80
2022-08-01T21:50:24.132Z,6.18
2022-08-01T21:53:11.856Z,5.90
2022-08-01T21:56:01.293Z,6.10
2022-08-01T21:58:49.044Z,5.20
2022-08-01T22:01:22.385Z,5.55
2022-08-01T22:03:53.446Z,8.40
2022-08-01T22:06:23.897Z,15.88
2022-08-01T22:08:53.815Z,8.90
2022-08-01T22:11:28.478Z,5.97
2022-08-01T22:14:00.176Z,6.88
2022-08-01T22:16:30.515Z,5.32
2022-08-01T22:18:57.764Z,3.70
2022-08-01T22:21:27.419Z,2.90
2022-08-01T22:23:54.856Z,5.40
2022-08-01T22:26:28.641Z,5.45
2022-08-01T22:28:56.467Z,4.60
2022-08-01T22:31:24.231Z,3.40
2022-08-01T22:33:52.072Z,3.20
2022-08-01T22:36:20.052Z,5.85
2022-08-01T22:38:47.500Z,2.85
2022-08-01T22:41:17.178Z,5.90
2022-08-01T22:44:00.343Z,3.80
2022-08-01T22:46:46.329Z,3.08
2022-08-01T22:49:13.459Z,2.38
2022-08-01T22:51:54.861Z,4.07
2022-08-01T22:54:30.449Z,4.28
2022-08-01T22:57:07.553Z,2.70
2022-08-01T23:00:06.114Z,4.38
2022-08-01T23:02:36.602Z,4.13
2022-08-01T23:05:07.080Z,2.63
2022-08-01T23:07:46.083Z,6.97
2022-08-01T23:10:13.828Z,3.40
2022-08-01T23:12:41.514Z,2.58
2022-08-01T23:15:09.369Z,4.88
2022-08-01T23:17:37.413Z,2.45
2022-08-01T23:20:06.990Z,3.40
2022-08-01T23:22:36.503Z,2.42
2022-08-01T23:25:09.524Z,3.38
2022-08-01T23:27:51.688Z,2.33
2022-08-01T23:30:31.493Z,3.58
2022-08-01T23:32:59.147Z,5.22
2022-08-01T23:35:27.043Z,3.47
2022-08-01T23:38:01.823Z,3.67
2022-08-01T23:40:31.842Z,7.22
2022-08-01T23:42:59.659Z,3.67
2022-08-01T23:45:26.934Z,2.47
2022-08-01T23:47:54.037Z,7.15
2022-08-01T23:50:21.838Z,4.80
2022-08-01T23:52:53.729Z,8.23
2022-08-01T23:55:36.904Z,4.65
2022-08-01T23:58:06.950Z,7.30
